TVF7020 LFPO-LFTH
Flight info
| Callsign | TVF7020 |
|---|---|
| Flight time | 1h 19m |
| Altitude | 35000 |
| Route | LATRA DCT LAMUT DCT UTUVA/N0445F290 DCT LERGA DCT LIQID DCT LATAM DCT MTL DCT XATEL |
| Aircraft | B738/M-SDE2E3FGHIRWXY/LB1 |
Departure
| Time | 2026-04-17 08:25 |
|---|---|
| Airport | Paris-Orly Airport (LFPO) |
Arrival
| Time | 2026-04-17 09:44 |
|---|---|
| Airport | Toulon-Hyères Airport (LFTH) |
| Time | Latitude | Longitude | Altitude | Speed | Heading |
|---|---|---|---|---|---|
| 2026-04-17 08:24 | 48.60724 | 2.21258 | 8656 ft | 277 kts | 191° |
| 2026-04-17 08:25 | 48.58778 | 2.21420 | 9551 ft | 288 kts | 165° |
| 2026-04-17 08:25 | 48.56910 | 2.22813 | 9989 ft | 315 kts | 151° |
| 2026-04-17 08:25 | 48.55014 | 2.24669 | 10006 ft | 328 kts | 148° |
| 2026-04-17 08:25 | 48.53104 | 2.26616 | 10010 ft | 333 kts | 149° |
| 2026-04-17 08:26 | 48.51154 | 2.28492 | 10003 ft | 333 kts | 150° |
| 2026-04-17 08:26 | 48.49184 | 2.30333 | 10004 ft | 333 kts | 150° |
| 2026-04-17 08:26 | 48.47146 | 2.31950 | 10015 ft | 330 kts | 162° |
| 2026-04-17 08:26 | 48.44960 | 2.33047 | 10493 ft | 331 kts | 165° |
| 2026-04-17 08:27 | 48.42752 | 2.34078 | 11417 ft | 334 kts | 165° |
| 2026-04-17 08:27 | 48.40516 | 2.35142 | 12306 ft | 339 kts | 165° |
| 2026-04-17 08:27 | 48.38258 | 2.36245 | 13170 ft | 344 kts | 164° |
| 2026-04-17 08:27 | 48.35968 | 2.37361 | 14036 ft | 348 kts | 165° |
| 2026-04-17 08:28 | 48.33642 | 2.38480 | 14793 ft | 352 kts | 165° |
| 2026-04-17 08:28 | 48.31316 | 2.39596 | 15525 ft | 357 kts | 165° |
| 2026-04-17 08:28 | 48.28940 | 2.40742 | 16255 ft | 361 kts | 164° |
| 2026-04-17 08:28 | 48.26565 | 2.42060 | 16956 ft | 366 kts | 163° |
| 2026-04-17 08:29 | 48.24139 | 2.43314 | 17666 ft | 370 kts | 164° |
| 2026-04-17 08:29 | 48.21685 | 2.44562 | 18379 ft | 375 kts | 163° |
| 2026-04-17 08:29 | 48.19204 | 2.45887 | 18982 ft | 380 kts | 163° |
| 2026-04-17 08:29 | 48.16700 | 2.47244 | 19566 ft | 384 kts | 163° |
| 2026-04-17 08:30 | 48.14170 | 2.48587 | 20153 ft | 388 kts | 163° |
| 2026-04-17 08:30 | 48.11609 | 2.49930 | 20743 ft | 392 kts | 163° |
| 2026-04-17 08:30 | 48.09012 | 2.51300 | 21322 ft | 396 kts | 163° |
| 2026-04-17 08:30 | 48.06375 | 2.52570 | 21893 ft | 399 kts | 165° |
| 2026-04-17 08:31 | 48.03729 | 2.53901 | 22464 ft | 403 kts | 163° |
| 2026-04-17 08:31 | 48.01070 | 2.55277 | 23023 ft | 407 kts | 163° |
| 2026-04-17 08:31 | 47.98375 | 2.56605 | 23586 ft | 410 kts | 165° |
| 2026-04-17 08:31 | 47.95647 | 2.57915 | 24081 ft | 413 kts | 164° |
| 2026-04-17 08:32 | 47.92934 | 2.59243 | 24532 ft | 417 kts | 164° |
| 2026-04-17 08:32 | 47.90140 | 2.60631 | 24991 ft | 420 kts | 164° |
| 2026-04-17 08:32 | 47.87386 | 2.61989 | 25428 ft | 423 kts | 164° |
| 2026-04-17 08:32 | 47.84576 | 2.63359 | 25871 ft | 426 kts | 164° |
| 2026-04-17 08:33 | 47.81753 | 2.64736 | 26303 ft | 429 kts | 164° |
| 2026-04-17 08:33 | 47.78906 | 2.66131 | 26727 ft | 432 kts | 164° |
| 2026-04-17 08:33 | 47.76037 | 2.67536 | 27131 ft | 435 kts | 164° |
| 2026-04-17 08:33 | 47.73148 | 2.68944 | 27532 ft | 438 kts | 164° |
| 2026-04-17 08:34 | 47.70242 | 2.70358 | 27952 ft | 441 kts | 164° |
| 2026-04-17 08:34 | 47.67318 | 2.71782 | 28408 ft | 442 kts | 164° |
| 2026-04-17 08:34 | 47.64397 | 2.73203 | 28966 ft | 441 kts | 164° |
| 2026-04-17 08:34 | 47.61481 | 2.74619 | 29513 ft | 440 kts | 164° |
| 2026-04-17 08:35 | 47.58570 | 2.76030 | 30043 ft | 440 kts | 164° |
| 2026-04-17 08:35 | 47.55665 | 2.77437 | 30515 ft | 439 kts | 164° |
| 2026-04-17 08:35 | 47.52764 | 2.78841 | 30947 ft | 439 kts | 164° |
| 2026-04-17 08:35 | 47.49855 | 2.80247 | 31368 ft | 438 kts | 164° |
| 2026-04-17 08:36 | 47.46957 | 2.81646 | 31781 ft | 438 kts | 164° |
| 2026-04-17 08:36 | 47.44056 | 2.83044 | 32189 ft | 437 kts | 165° |
| 2026-04-17 08:36 | 47.41165 | 2.84436 | 32597 ft | 437 kts | 165° |
| 2026-04-17 08:36 | 47.38276 | 2.85826 | 33000 ft | 436 kts | 165° |
| 2026-04-17 08:37 | 47.35394 | 2.87211 | 33409 ft | 436 kts | 165° |
| 2026-04-17 08:37 | 47.32504 | 2.88598 | 33803 ft | 435 kts | 165° |
| 2026-04-17 08:37 | 47.29626 | 2.89978 | 34213 ft | 435 kts | 165° |
| 2026-04-17 08:37 | 47.26778 | 2.91341 | 34552 ft | 434 kts | 165° |
| 2026-04-17 08:38 | 47.23906 | 2.92715 | 34891 ft | 434 kts | 165° |
| 2026-04-17 08:38 | 47.18202 | 2.95441 | 34980 ft | 424 kts | 165° |
| 2026-04-17 08:39 | 47.12635 | 2.98089 | 34993 ft | 423 kts | 165° |
| 2026-04-17 08:39 | 47.06976 | 3.00451 | 34992 ft | 423 kts | 167° |
| 2026-04-17 08:40 | 47.01310 | 3.02827 | 34990 ft | 424 kts | 168° |
| 2026-04-17 08:40 | 46.95597 | 3.05152 | 34993 ft | 423 kts | 167° |
| 2026-04-17 08:41 | 46.89969 | 3.07474 | 34995 ft | 423 kts | 167° |
| 2026-04-17 08:41 | 46.84286 | 3.09793 | 34995 ft | 424 kts | 167° |
| 2026-04-17 08:42 | 46.78610 | 3.12115 | 34991 ft | 423 kts | 167° |
| 2026-04-17 08:42 | 46.72940 | 3.14424 | 34990 ft | 422 kts | 167° |
| 2026-04-17 08:43 | 46.67285 | 3.16724 | 34984 ft | 422 kts | 167° |
| 2026-04-17 08:43 | 46.61628 | 3.19019 | 34987 ft | 422 kts | 167° |
| 2026-04-17 08:44 | 46.55958 | 3.21315 | 34988 ft | 423 kts | 167° |
| 2026-04-17 08:44 | 46.50323 | 3.23591 | 34989 ft | 423 kts | 167° |
| 2026-04-17 08:45 | 46.44641 | 3.25882 | 34992 ft | 423 kts | 167° |
| 2026-04-17 08:45 | 46.38969 | 3.28163 | 34992 ft | 423 kts | 167° |
| 2026-04-17 08:46 | 46.33303 | 3.30438 | 34990 ft | 422 kts | 167° |
| 2026-04-17 08:46 | 46.27651 | 3.32702 | 34994 ft | 422 kts | 168° |
| 2026-04-17 08:47 | 46.21985 | 3.34966 | 34994 ft | 422 kts | 168° |
| 2026-04-17 08:47 | 46.16313 | 3.37228 | 34993 ft | 423 kts | 168° |
| 2026-04-17 08:48 | 46.10634 | 3.39488 | 34994 ft | 422 kts | 168° |
| 2026-04-17 08:48 | 46.04971 | 3.41737 | 34995 ft | 422 kts | 168° |
| 2026-04-17 08:49 | 45.99336 | 3.43970 | 34992 ft | 423 kts | 168° |
| 2026-04-17 08:49 | 45.93672 | 3.46210 | 34987 ft | 422 kts | 168° |
| 2026-04-17 08:50 | 45.88011 | 3.48443 | 34984 ft | 422 kts | 168° |
| 2026-04-17 08:50 | 45.82371 | 3.50859 | 34982 ft | 423 kts | 167° |
| 2026-04-17 08:51 | 45.76722 | 3.53230 | 34983 ft | 423 kts | 167° |
| 2026-04-17 08:51 | 45.72006 | 3.55292 | 34982 ft | 423 kts | 167° |
| 2026-04-17 08:52 | 45.66382 | 3.57695 | 34983 ft | 425 kts | 167° |
| 2026-04-17 08:52 | 45.60715 | 3.60130 | 34980 ft | 425 kts | 167° |
| 2026-04-17 08:53 | 45.55060 | 3.62548 | 34983 ft | 424 kts | 167° |
| 2026-04-17 08:53 | 45.49406 | 3.64961 | 34971 ft | 424 kts | 167° |
| 2026-04-17 08:54 | 45.43742 | 3.67375 | 34969 ft | 425 kts | 167° |
| 2026-04-17 08:54 | 45.38065 | 3.69789 | 34974 ft | 425 kts | 167° |
| 2026-04-17 08:55 | 45.32399 | 3.72193 | 34968 ft | 425 kts | 167° |
| 2026-04-17 08:55 | 45.26921 | 3.75319 | 35004 ft | 431 kts | 148° |
| 2026-04-17 08:55 | 45.24616 | 3.78059 | 35004 ft | 435 kts | 134° |
| 2026-04-17 08:56 | 45.22775 | 3.81496 | 35011 ft | 438 kts | 124° |
| 2026-04-17 08:56 | 45.19482 | 3.88776 | 35005 ft | 438 kts | 123° |
| 2026-04-17 08:57 | 45.16169 | 3.96038 | 34998 ft | 438 kts | 124° |
| 2026-04-17 08:57 | 45.12854 | 4.03287 | 34995 ft | 439 kts | 124° |
| 2026-04-17 08:58 | 45.09538 | 4.10534 | 34984 ft | 437 kts | 124° |
| 2026-04-17 08:58 | 45.06245 | 4.17697 | 34973 ft | 436 kts | 124° |
| 2026-04-17 08:59 | 45.02683 | 4.24624 | 34982 ft | 434 kts | 139° |
| 2026-04-17 08:59 | 44.98027 | 4.30036 | 34960 ft | 433 kts | 143° |
| 2026-04-17 09:00 | 44.93326 | 4.35357 | 34952 ft | 433 kts | 143° |
| 2026-04-17 09:00 | 44.88631 | 4.40705 | 34946 ft | 433 kts | 143° |
| 2026-04-17 09:01 | 44.83958 | 4.45985 | 34935 ft | 432 kts | 143° |
| 2026-04-17 09:01 | 44.79274 | 4.51286 | 34933 ft | 431 kts | 143° |
| 2026-04-17 09:02 | 44.74589 | 4.56565 | 34931 ft | 432 kts | 143° |
| 2026-04-17 09:02 | 44.69897 | 4.61848 | 34932 ft | 433 kts | 143° |
| 2026-04-17 09:03 | 44.65188 | 4.67135 | 34926 ft | 433 kts | 143° |
| 2026-04-17 09:03 | 44.60475 | 4.72416 | 34928 ft | 433 kts | 143° |
| 2026-04-17 09:04 | 44.55768 | 4.77694 | 34925 ft | 433 kts | 140° |
| 2026-04-17 09:04 | 44.51498 | 4.83605 | 34933 ft | 434 kts | 135° |
| 2026-04-17 09:05 | 44.47237 | 4.89623 | 34920 ft | 434 kts | 136° |
| 2026-04-17 09:05 | 44.42963 | 4.95602 | 34922 ft | 434 kts | 136° |
| 2026-04-17 09:06 | 44.38674 | 5.01622 | 34394 ft | 439 kts | 136° |
| 2026-04-17 09:06 | 44.36502 | 5.04652 | 33738 ft | 442 kts | 136° |
| 2026-04-17 09:06 | 44.34331 | 5.07682 | 33111 ft | 440 kts | 136° |
| 2026-04-17 09:06 | 44.32164 | 5.10708 | 32499 ft | 440 kts | 136° |
| 2026-04-17 09:07 | 44.30000 | 5.13726 | 31867 ft | 439 kts | 136° |
| 2026-04-17 09:07 | 44.27821 | 5.16718 | 31240 ft | 438 kts | 140° |
| 2026-04-17 09:07 | 44.25359 | 5.19137 | 30938 ft | 430 kts | 152° |
| 2026-04-17 09:07 | 44.22774 | 5.21143 | 30752 ft | 431 kts | 153° |
| 2026-04-17 09:08 | 44.20126 | 5.23151 | 30118 ft | 434 kts | 153° |
| 2026-04-17 09:08 | 44.17463 | 5.25166 | 29176 ft | 438 kts | 153° |
| 2026-04-17 09:08 | 44.14776 | 5.27225 | 28465 ft | 437 kts | 152° |
| 2026-04-17 09:08 | 44.12137 | 5.29250 | 27938 ft | 430 kts | 152° |
| 2026-04-17 09:09 | 44.09517 | 5.31244 | 27421 ft | 425 kts | 152° |
| 2026-04-17 09:09 | 44.06938 | 5.33200 | 26909 ft | 422 kts | 152° |
| 2026-04-17 09:09 | 44.04365 | 5.35155 | 26410 ft | 419 kts | 152° |
| 2026-04-17 09:09 | 44.01813 | 5.37097 | 25913 ft | 416 kts | 152° |
| 2026-04-17 09:10 | 43.96766 | 5.40924 | 24928 ft | 409 kts | 152° |
| 2026-04-17 09:10 | 43.94276 | 5.42805 | 24443 ft | 406 kts | 152° |
| 2026-04-17 09:10 | 43.91837 | 5.44645 | 23968 ft | 403 kts | 152° |
| 2026-04-17 09:11 | 43.89377 | 5.46501 | 23444 ft | 400 kts | 152° |
| 2026-04-17 09:11 | 43.86944 | 5.48335 | 22967 ft | 396 kts | 152° |
| 2026-04-17 09:11 | 43.84525 | 5.50157 | 22492 ft | 394 kts | 152° |
| 2026-04-17 09:11 | 43.82120 | 5.51965 | 22022 ft | 392 kts | 152° |
| 2026-04-17 09:12 | 43.79733 | 5.53759 | 21562 ft | 389 kts | 152° |
| 2026-04-17 09:12 | 43.77353 | 5.55546 | 21098 ft | 387 kts | 151° |
| 2026-04-17 09:12 | 43.75154 | 5.57656 | 20641 ft | 385 kts | 135° |
| 2026-04-17 09:12 | 43.73420 | 5.60453 | 20186 ft | 382 kts | 128° |
| 2026-04-17 09:13 | 43.71803 | 5.63359 | 19728 ft | 380 kts | 126° |
| 2026-04-17 09:13 | 43.70236 | 5.66225 | 19274 ft | 377 kts | 127° |
| 2026-04-17 09:13 | 43.68608 | 5.69108 | 18824 ft | 375 kts | 127° |
| 2026-04-17 09:13 | 43.67015 | 5.71886 | 18383 ft | 372 kts | 127° |
| 2026-04-17 09:14 | 43.65421 | 5.74691 | 17903 ft | 369 kts | 127° |
| 2026-04-17 09:14 | 43.63849 | 5.77465 | 17466 ft | 366 kts | 127° |
| 2026-04-17 09:14 | 43.62278 | 5.80226 | 17037 ft | 364 kts | 127° |
| 2026-04-17 09:14 | 43.60718 | 5.82959 | 16591 ft | 361 kts | 127° |
| 2026-04-17 09:15 | 43.59167 | 5.85675 | 16169 ft | 359 kts | 127° |
| 2026-04-17 09:15 | 43.57629 | 5.88371 | 15896 ft | 354 kts | 127° |
| 2026-04-17 09:15 | 43.56097 | 5.91061 | 15885 ft | 358 kts | 127° |
| 2026-04-17 09:15 | 43.54562 | 5.93759 | 15890 ft | 358 kts | 127° |
| 2026-04-17 09:16 | 43.53025 | 5.96456 | 15775 ft | 360 kts | 127° |
| 2026-04-17 09:16 | 43.51483 | 5.99154 | 15536 ft | 356 kts | 127° |
| 2026-04-17 09:16 | 43.49951 | 6.01833 | 15288 ft | 355 kts | 127° |
| 2026-04-17 09:16 | 43.48429 | 6.04495 | 15152 ft | 352 kts | 127° |
| 2026-04-17 09:17 | 43.46903 | 6.07162 | 15020 ft | 354 kts | 127° |
| 2026-04-17 09:17 | 43.45299 | 6.09664 | 14829 ft | 353 kts | 140° |
| 2026-04-17 09:17 | 43.43167 | 6.11310 | 14621 ft | 353 kts | 162° |
| 2026-04-17 09:17 | 43.40759 | 6.11874 | 14396 ft | 351 kts | 175° |
| 2026-04-17 09:18 | 43.38322 | 6.12095 | 14162 ft | 350 kts | 178° |
| 2026-04-17 09:18 | 43.35902 | 6.12250 | 13924 ft | 348 kts | 177° |
| 2026-04-17 09:18 | 43.33489 | 6.12453 | 13673 ft | 346 kts | 176° |
| 2026-04-17 09:18 | 43.31087 | 6.12690 | 13434 ft | 345 kts | 176° |
| 2026-04-17 09:19 | 43.28697 | 6.12913 | 13206 ft | 343 kts | 176° |
| 2026-04-17 09:19 | 43.26316 | 6.13117 | 12968 ft | 342 kts | 177° |
| 2026-04-17 09:19 | 43.23944 | 6.13322 | 12753 ft | 338 kts | 176° |
| 2026-04-17 09:19 | 43.21630 | 6.13531 | 12529 ft | 327 kts | 176° |
| 2026-04-17 09:20 | 43.19397 | 6.13749 | 12314 ft | 316 kts | 176° |
| 2026-04-17 09:20 | 43.17239 | 6.13963 | 12151 ft | 302 kts | 176° |
| 2026-04-17 09:20 | 43.15162 | 6.14159 | 12162 ft | 307 kts | 176° |
| 2026-04-17 09:20 | 43.13041 | 6.14357 | 12157 ft | 303 kts | 176° |
| 2026-04-17 09:21 | 43.10917 | 6.14558 | 12160 ft | 306 kts | 176° |
| 2026-04-17 09:21 | 43.08797 | 6.14759 | 12160 ft | 306 kts | 176° |
| 2026-04-17 09:21 | 43.06669 | 6.14960 | 12161 ft | 306 kts | 176° |
| 2026-04-17 09:21 | 43.04558 | 6.14859 | 12168 ft | 306 kts | 195° |
| 2026-04-17 09:22 | 43.02659 | 6.13599 | 12173 ft | 304 kts | 220° |
| 2026-04-17 09:22 | 43.01255 | 6.11455 | 12052 ft | 305 kts | 234° |
| 2026-04-17 09:22 | 43.00048 | 6.09106 | 11755 ft | 299 kts | 237° |
| 2026-04-17 09:22 | 42.98900 | 6.06768 | 11450 ft | 294 kts | 237° |
| 2026-04-17 09:23 | 42.97751 | 6.04519 | 11102 ft | 289 kts | 235° |
| 2026-04-17 09:23 | 42.96615 | 6.02348 | 10735 ft | 274 kts | 235° |
| 2026-04-17 09:23 | 42.95534 | 6.00265 | 10370 ft | 262 kts | 235° |
| 2026-04-17 09:23 | 42.94511 | 5.98278 | 10049 ft | 242 kts | 235° |
| 2026-04-17 09:24 | 42.93600 | 5.96511 | 9685 ft | 216 kts | 235° |
| 2026-04-17 09:24 | 42.92758 | 5.94884 | 9311 ft | 208 kts | 235° |
| 2026-04-17 09:24 | 42.91763 | 5.93504 | 8951 ft | 206 kts | 217° |
| 2026-04-17 09:24 | 42.90606 | 5.92382 | 8571 ft | 204 kts | 200° |
| 2026-04-17 09:25 | 42.89249 | 5.92396 | 8226 ft | 193 kts | 154° |
| 2026-04-17 09:25 | 42.88215 | 5.93387 | 7883 ft | 173 kts | 140° |
| 2026-04-17 09:25 | 42.87336 | 5.94441 | 7533 ft | 166 kts | 139° |
| 2026-04-17 09:25 | 42.86474 | 5.95495 | 7201 ft | 165 kts | 139° |
| 2026-04-17 09:26 | 42.85624 | 5.96536 | 6859 ft | 163 kts | 139° |
| 2026-04-17 09:26 | 42.84822 | 5.97527 | 6510 ft | 149 kts | 139° |
| 2026-04-17 09:26 | 42.84064 | 5.98466 | 6147 ft | 150 kts | 139° |
| 2026-04-17 09:26 | 42.83271 | 5.99303 | 5750 ft | 149 kts | 162° |
| 2026-04-17 09:27 | 42.82266 | 5.99409 | 5399 ft | 145 kts | 191° |
| 2026-04-17 09:27 | 42.81267 | 5.99177 | 5067 ft | 145 kts | 192° |
| 2026-04-17 09:27 | 42.80273 | 5.98933 | 4719 ft | 145 kts | 194° |
| 2026-04-17 09:27 | 42.79384 | 5.98327 | 4338 ft | 144 kts | 214° |
| 2026-04-17 09:28 | 42.78592 | 5.97506 | 3974 ft | 142 kts | 236° |
| 2026-04-17 09:28 | 42.78153 | 5.96329 | 3647 ft | 138 kts | 255° |
| 2026-04-17 09:28 | 42.77898 | 5.95077 | 3293 ft | 137 kts | 268° |
| 2026-04-17 09:28 | 42.77891 | 5.93791 | 2937 ft | 135 kts | 280° |
| 2026-04-17 09:29 | 42.78073 | 5.92549 | 2608 ft | 133 kts | 284° |
| 2026-04-17 09:29 | 42.78267 | 5.91321 | 2258 ft | 132 kts | 285° |
| 2026-04-17 09:29 | 42.78603 | 5.90178 | 2013 ft | 127 kts | 306° |
| 2026-04-17 09:29 | 42.79144 | 5.89199 | 1996 ft | 127 kts | 320° |
| 2026-04-17 09:30 | 42.79847 | 5.88435 | 2010 ft | 128 kts | 322° |
| 2026-04-17 09:30 | 42.80639 | 5.87843 | 2009 ft | 130 kts | 332° |
| 2026-04-17 09:30 | 42.81448 | 5.87292 | 2007 ft | 131 kts | 333° |
| 2026-04-17 09:30 | 42.82250 | 5.86747 | 1982 ft | 133 kts | 333° |
| 2026-04-17 09:31 | 42.83067 | 5.86212 | 1855 ft | 132 kts | 336° |
| 2026-04-17 09:31 | 42.83897 | 5.85717 | 1723 ft | 131 kts | 336° |
| 2026-04-17 09:31 | 42.84745 | 5.85264 | 1603 ft | 130 kts | 340° |
| 2026-04-17 09:31 | 42.85599 | 5.84857 | 1458 ft | 130 kts | 340° |
| 2026-04-17 09:32 | 42.86454 | 5.84446 | 1414 ft | 131 kts | 340° |
| 2026-04-17 09:32 | 42.87040 | 5.84181 | 1412 ft | 130 kts | 341° |
| 2026-04-17 09:32 | 42.87917 | 5.83785 | 1407 ft | 135 kts | 340° |
| 2026-04-17 09:32 | 42.88811 | 5.83377 | 1413 ft | 137 kts | 340° |
| 2026-04-17 09:33 | 42.89705 | 5.83018 | 1410 ft | 135 kts | 346° |
| 2026-04-17 09:33 | 42.90649 | 5.83011 | 1397 ft | 137 kts | 6° |
| 2026-04-17 09:33 | 42.91514 | 5.83506 | 1389 ft | 138 kts | 44° |
| 2026-04-17 09:33 | 42.92102 | 5.84563 | 1411 ft | 138 kts | 55° |
| 2026-04-17 09:34 | 42.92642 | 5.85666 | 1411 ft | 138 kts | 53° |
| 2026-04-17 09:34 | 42.93198 | 5.86753 | 1414 ft | 139 kts | 52° |
| 2026-04-17 09:34 | 42.93776 | 5.87815 | 1410 ft | 140 kts | 52° |
| 2026-04-17 09:34 | 42.94358 | 5.88877 | 1419 ft | 140 kts | 52° |
| 2026-04-17 09:35 | 42.94939 | 5.89936 | 1418 ft | 140 kts | 52° |
| 2026-04-17 09:35 | 42.95520 | 5.90999 | 1411 ft | 140 kts | 52° |
| 2026-04-17 09:35 | 42.96101 | 5.92057 | 1412 ft | 139 kts | 51° |
| 2026-04-17 09:35 | 42.96693 | 5.93105 | 1419 ft | 139 kts | 51° |
| 2026-04-17 09:36 | 42.97286 | 5.94151 | 1416 ft | 139 kts | 50° |
| 2026-04-17 09:36 | 42.97891 | 5.95190 | 1416 ft | 140 kts | 50° |
| 2026-04-17 09:36 | 42.98491 | 5.96212 | 1418 ft | 140 kts | 50° |
| 2026-04-17 09:36 | 42.99109 | 5.97264 | 1413 ft | 140 kts | 50° |
| 2026-04-17 09:37 | 42.99709 | 5.98289 | 1419 ft | 140 kts | 50° |
| 2026-04-17 09:37 | 43.00316 | 5.99326 | 1413 ft | 140 kts | 50° |
| 2026-04-17 09:37 | 43.00931 | 6.00374 | 1420 ft | 139 kts | 50° |
| 2026-04-17 09:37 | 43.01537 | 6.01406 | 1413 ft | 139 kts | 50° |
| 2026-04-17 09:38 | 43.02136 | 6.02427 | 1418 ft | 139 kts | 50° |
| 2026-04-17 09:38 | 43.02746 | 6.03465 | 1419 ft | 140 kts | 50° |
| 2026-04-17 09:38 | 43.03353 | 6.04502 | 1416 ft | 140 kts | 50° |
| 2026-04-17 09:38 | 43.03962 | 6.05544 | 1422 ft | 140 kts | 50° |
| 2026-04-17 09:39 | 43.04569 | 6.06581 | 1416 ft | 140 kts | 50° |
| 2026-04-17 09:39 | 43.05179 | 6.07622 | 1394 ft | 140 kts | 49° |
| 2026-04-17 09:39 | 43.05811 | 6.08614 | 1391 ft | 138 kts | 42° |
| 2026-04-17 09:39 | 43.06569 | 6.09454 | 1159 ft | 143 kts | 38° |
| 2026-04-17 09:40 | 43.07236 | 6.10374 | 1014 ft | 138 kts | 50° |
| 2026-04-17 09:40 | 43.07858 | 6.11358 | 770 ft | 135 kts | 51° |
| 2026-04-17 09:40 | 43.08463 | 6.12354 | 609 ft | 139 kts | 50° |
| 2026-04-17 09:40 | 43.09091 | 6.13384 | 541 ft | 149 kts | 50° |
| 2026-04-17 09:41 | 43.09736 | 6.14468 | 339 ft | 140 kts | 52° |
| 2026-04-17 09:41 | 43.10311 | 6.15509 | 124 ft | 130 kts | 54° |
| 2026-04-17 09:41 | 43.10868 | 6.16519 | 252 ft | 135 kts | 52° |
| 2026-04-17 09:41 | 43.11491 | 6.17481 | 367 ft | 136 kts | 47° |
| 2026-04-17 09:42 | 43.12181 | 6.18386 | 306 ft | 136 kts | 50° |
| 2026-04-17 09:42 | 43.12624 | 6.19482 | 435 ft | 135 kts | 72° |
| 2026-04-17 09:42 | 43.12619 | 6.20669 | 631 ft | 123 kts | 123° |
| 2026-04-17 09:42 | 43.11874 | 6.20874 | 893 ft | 122 kts | 216° |
| 2026-04-17 09:43 | 43.11635 | 6.19798 | 1103 ft | 130 kts | 269° |
| 2026-04-17 09:43 | 43.11382 | 6.18555 | 770 ft | 136 kts | 245° |
| 2026-04-17 09:43 | 43.10998 | 6.17384 | 456 ft | 133 kts | 244° |
| 2026-04-17 09:43 | 43.10586 | 6.16262 | 210 ft | 125 kts | 237° |
| 2026-04-17 09:44 | 43.10174 | 6.15374 | 15 ft | 80 kts | 236° |
| 2026-04-17 09:44 | 43.10410 | 6.15871 | 12 ft | 0 kts | 235° |